createdAt,value
2018-11-21T00:00:56.682Z,61.39
2018-11-21T00:01:56.623Z,61.10
2018-11-21T00:02:56.562Z,61.10
2018-11-21T00:03:56.500Z,61.39
2018-11-21T00:04:56.441Z,61.68
2018-11-21T00:05:56.379Z,61.39
2018-11-21T00:06:56.319Z,61.58
2018-11-21T00:07:56.263Z,61.48
2018-11-21T00:08:56.198Z,61.39
2018-11-21T00:09:56.138Z,61.39
2018-11-21T00:10:56.077Z,61.39
2018-11-21T00:11:56.016Z,61.68
2018-11-21T00:12:55.956Z,61.29
2018-11-21T00:13:55.896Z,61.29
2018-11-21T00:14:55.836Z,61.77
2018-11-21T00:15:55.775Z,61.39
2018-11-21T00:16:55.765Z,61.87
2018-11-21T00:17:55.653Z,61.58
2018-11-21T00:19:00.645Z,61.96
2018-11-21T00:19:55.539Z,61.58
2018-11-21T00:20:55.472Z,61.39
2018-11-21T00:21:55.412Z,61.58
2018-11-21T00:22:55.353Z,61.39
2018-11-21T00:23:55.292Z,61.39
2018-11-21T00:24:55.230Z,61.96
2018-11-21T00:25:55.171Z,61.48
2018-11-21T00:26:55.109Z,61.68
2018-11-21T00:27:55.048Z,61.68
2018-11-21T00:28:54.988Z,61.68
2018-11-21T00:29:54.928Z,61.68
2018-11-21T00:30:54.868Z,61.68
2018-11-21T00:31:54.807Z,61.68
2018-11-21T00:32:54.746Z,61.68
2018-11-21T00:33:54.686Z,61.39
2018-11-21T00:34:54.630Z,61.48
2018-11-21T00:35:54.569Z,61.58
2018-11-21T00:36:54.504Z,61.58
2018-11-21T00:37:54.445Z,61.58
2018-11-21T00:38:54.384Z,61.39
2018-11-21T00:39:54.323Z,61.68
2018-11-21T00:40:54.263Z,61.39
2018-11-21T00:41:54.202Z,61.68
2018-11-21T00:42:54.141Z,61.68
2018-11-21T00:43:54.081Z,61.77
2018-11-21T00:44:54.022Z,61.29
2018-11-21T00:45:53.960Z,61.48
2018-11-21T00:46:53.900Z,61.48
2018-11-21T00:47:53.838Z,61.58
2018-11-21T00:48:53.777Z,61.48
2018-11-21T00:49:53.718Z,61.48
2018-11-21T00:50:53.658Z,61.39
2018-11-21T00:51:53.596Z,61.29
2018-11-21T00:52:53.537Z,60.91
2018-11-21T00:53:53.478Z,61.10
2018-11-21T00:54:53.416Z,61.10
2018-11-21T00:55:53.356Z,61.20
2018-11-21T00:56:53.293Z,61.39
2018-11-21T00:57:53.235Z,61.29
2018-11-21T00:58:53.174Z,61.48
2018-11-21T00:59:53.112Z,61.77
2018-11-21T01:00:53.051Z,61.29
2018-11-21T01:01:52.993Z,61.39
2018-11-21T01:02:52.932Z,61.77
2018-11-21T01:03:52.870Z,61.58
2018-11-21T01:04:52.809Z,61.29
2018-11-21T01:05:52.749Z,61.48
2018-11-21T01:06:52.689Z,61.01
2018-11-21T01:07:52.627Z,61.01
2018-11-21T01:08:52.570Z,61.29
2018-11-21T01:09:52.506Z,61.48
2018-11-21T01:10:52.447Z,61.39
2018-11-21T01:11:52.387Z,61.68
2018-11-21T01:12:52.325Z,61.96
2018-11-21T01:13:52.374Z,61.29
2018-11-21T01:14:52.204Z,61.87
2018-11-21T01:15:52.145Z,61.58
2018-11-21T01:16:52.084Z,61.48
2018-11-21T01:17:52.023Z,61.29
2018-11-21T01:18:52.012Z,61.39
2018-11-21T01:19:51.903Z,61.20
2018-11-21T01:20:51.841Z,61.48
2018-11-21T01:21:51.780Z,61.48
2018-11-21T01:22:51.719Z,61.48
2018-11-21T01:23:51.661Z,61.68
2018-11-21T01:24:51.598Z,61.39
2018-11-21T01:25:51.538Z,61.29
2018-11-21T01:26:51.480Z,61.39
2018-11-21T01:27:51.417Z,61.29
2018-11-21T01:28:51.357Z,61.26
2018-11-21T01:29:51.297Z,61.01
2018-11-21T01:30:51.237Z,60.72
2018-11-21T01:31:51.174Z,60.72
2018-11-21T01:32:51.113Z,61.10
2018-11-21T01:33:51.056Z,60.91
2018-11-21T01:34:50.994Z,60.82
2018-11-21T01:35:50.933Z,60.82
2018-11-21T01:36:50.876Z,61.01
2018-11-21T01:37:50.811Z,61.48
2018-11-21T01:38:50.750Z,61.58
2018-11-21T01:39:50.688Z,61.68
2018-11-21T01:40:50.629Z,61.58
2018-11-21T01:41:50.568Z,61.68
2018-11-21T01:42:50.509Z,61.68
2018-11-21T01:43:50.447Z,61.48
2018-11-21T01:44:50.387Z,61.68
2018-11-21T01:45:50.327Z,61.17
2018-11-21T01:46:50.266Z,61.48
2018-11-21T01:47:50.204Z,61.45
2018-11-21T01:48:50.145Z,61.48
2018-11-21T01:49:50.084Z,61.45
2018-11-21T01:50:50.024Z,61.26
2018-11-21T01:51:49.962Z,60.91
2018-11-21T01:52:49.903Z,61.01
2018-11-21T01:53:49.850Z,60.91
2018-11-21T01:54:49.781Z,61.17
2018-11-21T01:55:49.719Z,60.91
2018-11-21T01:56:49.658Z,60.91
2018-11-21T01:57:49.600Z,60.98
2018-11-21T01:58:49.538Z,60.72
2018-11-21T01:59:49.477Z,61.01
2018-11-21T02:00:49.420Z,61.01
2018-11-21T02:01:49.355Z,60.91
2018-11-21T02:02:49.302Z,60.98
2018-11-21T02:03:49.234Z,60.98
2018-11-21T02:04:49.175Z,60.91
2018-11-21T02:05:49.114Z,60.69
2018-11-21T02:06:49.068Z,61.01
2018-11-21T02:07:48.994Z,60.82
2018-11-21T02:08:48.934Z,60.79
2018-11-21T02:09:48.882Z,60.69
2018-11-21T02:10:48.810Z,60.88
2018-11-21T02:11:48.750Z,60.79
2018-11-21T02:12:48.688Z,60.79
2018-11-21T02:13:48.792Z,60.98
2018-11-21T02:14:48.579Z,60.98
2018-11-21T02:15:48.508Z,60.41
2018-11-21T02:16:48.449Z,60.41
2018-11-21T02:17:48.386Z,60.69
2018-11-21T02:18:48.326Z,60.69
2018-11-21T02:19:48.264Z,60.60
2018-11-21T02:20:48.210Z,60.88
2018-11-21T02:21:48.148Z,60.60
2018-11-21T02:22:48.084Z,60.69
2018-11-21T02:23:48.022Z,60.98
2018-11-21T02:24:47.964Z,60.69
2018-11-21T02:25:47.907Z,60.69
2018-11-21T02:26:47.841Z,60.69
2018-11-21T02:27:47.780Z,60.60
2018-11-21T02:28:47.718Z,60.50
2018-11-21T02:29:47.658Z,60.69
2018-11-21T02:30:47.598Z,60.69
2018-11-21T02:31:47.541Z,60.88
2018-11-21T02:32:47.477Z,60.79
2018-11-21T02:33:47.419Z,60.88
2018-11-21T02:34:47.355Z,60.60
2018-11-21T02:35:47.294Z,60.41
2018-11-21T02:36:47.234Z,60.60
2018-11-21T02:37:47.173Z,60.88
2018-11-21T02:38:47.111Z,60.41
2018-11-21T02:39:47.052Z,60.60
2018-11-21T02:40:47.052Z,60.88
2018-11-21T02:41:46.929Z,60.60
2018-11-21T02:42:46.869Z,60.79
2018-11-21T02:43:46.808Z,60.79
2018-11-21T02:44:46.747Z,60.88
2018-11-21T02:45:46.687Z,60.98
2018-11-21T02:46:46.629Z,60.31
2018-11-21T02:47:46.567Z,60.13
2018-11-21T02:48:46.508Z,60.13
2018-11-21T02:49:46.444Z,60.60
2018-11-21T02:50:46.386Z,60.50
2018-11-21T02:52:00.994Z,60.60
2018-11-21T02:52:46.318Z,60.41
2018-11-21T02:53:46.201Z,60.31
2018-11-21T02:54:46.141Z,60.31
2018-11-21T02:55:46.079Z,60.31
2018-11-21T02:56:46.021Z,60.41
2018-11-21T02:57:45.957Z,60.31
2018-11-21T02:58:45.899Z,60.13
2018-11-21T02:59:45.839Z,60.03
2018-11-21T03:00:45.779Z,60.60
2018-11-21T03:01:45.715Z,60.31
2018-11-21T03:02:45.654Z,60.69
2018-11-21T03:03:45.593Z,60.60
2018-11-21T03:04:45.534Z,60.60
2018-11-21T03:05:45.473Z,60.60
2018-11-21T03:06:45.412Z,60.31
2018-11-21T03:07:45.354Z,60.60
2018-11-21T03:08:45.291Z,60.60
2018-11-21T03:09:45.230Z,60.31
2018-11-21T03:10:45.170Z,60.41
2018-11-21T03:11:45.108Z,60.41
2018-11-21T03:12:45.047Z,60.41
2018-11-21T03:13:44.987Z,60.03
2018-11-21T03:14:45.041Z,59.93
2018-11-21T03:15:44.865Z,59.93
2018-11-21T03:16:44.805Z,60.03
2018-11-21T03:17:44.744Z,60.41
2018-11-21T03:18:44.685Z,59.93
2018-11-21T03:19:44.622Z,60.03
2018-11-21T03:20:44.561Z,60.13
2018-11-21T03:21:44.501Z,59.84
2018-11-21T03:22:44.440Z,60.31
2018-11-21T03:23:44.379Z,59.93
2018-11-21T03:24:44.318Z,60.22
2018-11-21T03:25:44.257Z,59.93
2018-11-21T03:26:44.209Z,59.93
2018-11-21T03:27:44.136Z,60.13
2018-11-21T03:28:44.076Z,60.03
2018-11-21T03:29:44.016Z,60.03
2018-11-21T03:30:43.954Z,59.84
2018-11-21T03:31:43.897Z,60.03
2018-11-21T03:32:43.834Z,59.55
2018-11-21T03:33:43.775Z,59.65
2018-11-21T03:34:43.710Z,59.46
2018-11-21T03:35:43.650Z,59.46
2018-11-21T03:36:43.596Z,59.55
2018-11-21T03:37:43.529Z,59.65
2018-11-21T03:38:43.468Z,59.65
2018-11-21T03:39:43.406Z,59.65
2018-11-21T03:40:43.345Z,59.93
2018-11-21T03:41:43.286Z,59.84
2018-11-21T03:42:43.228Z,59.93
2018-11-21T03:43:43.163Z,59.93
2018-11-21T03:44:43.103Z,59.93
2018-11-21T03:45:43.043Z,60.03
2018-11-21T03:46:42.982Z,59.74
2018-11-21T03:47:42.922Z,59.55
2018-11-21T03:48:42.860Z,59.65
2018-11-21T03:49:42.800Z,59.74
2018-11-21T03:50:42.741Z,59.84
2018-11-21T03:51:42.682Z,59.74
2018-11-21T03:52:42.623Z,59.74
2018-11-21T03:53:42.554Z,59.84
2018-11-21T03:54:42.496Z,59.84
2018-11-21T03:55:42.437Z,59.84
2018-11-21T03:56:42.372Z,59.93
2018-11-21T03:57:42.313Z,59.74
2018-11-21T03:58:42.255Z,59.84
2018-11-21T03:59:42.191Z,59.84
2018-11-21T04:00:42.137Z,59.84
2018-11-21T04:01:42.074Z,59.93
2018-11-21T04:02:42.010Z,59.65
2018-11-21T04:03:41.947Z,59.84
2018-11-21T04:04:41.889Z,59.65
2018-11-21T04:05:41.826Z,59.46
2018-11-21T04:06:41.765Z,59.46
2018-11-21T04:07:41.704Z,59.46
2018-11-21T04:08:42.734Z,59.27
2018-11-21T04:09:41.582Z,59.36
2018-11-21T04:10:41.522Z,59.65
2018-11-21T04:11:41.461Z,59.27
2018-11-21T04:12:41.399Z,59.36
2018-11-21T04:13:41.338Z,59.27
2018-11-21T04:14:41.285Z,59.27
2018-11-21T04:15:41.215Z,59.27
2018-11-21T04:16:41.159Z,59.17
2018-11-21T04:17:41.095Z,59.36
2018-11-21T04:18:41.034Z,59.27
2018-11-21T04:19:40.972Z,59.36
2018-11-21T04:20:40.914Z,59.08
2018-11-21T04:21:40.851Z,59.08
2018-11-21T04:22:40.790Z,59.08
2018-11-21T04:23:40.730Z,58.98
2018-11-21T04:24:40.671Z,59.08
2018-11-21T04:25:40.609Z,59.17
2018-11-21T04:26:40.550Z,59.27
2018-11-21T04:27:40.487Z,59.17
2018-11-21T04:28:40.425Z,59.08
2018-11-21T04:29:40.363Z,58.89
2018-11-21T04:30:40.302Z,58.80
2018-11-21T04:31:40.244Z,59.08
2018-11-21T04:32:40.182Z,58.80
2018-11-21T04:33:40.121Z,58.80
2018-11-21T04:34:40.061Z,58.61
2018-11-21T04:35:39.998Z,58.98
2018-11-21T04:36:39.937Z,58.80
2018-11-21T04:37:39.877Z,58.51
2018-11-21T04:38:39.818Z,58.70
2018-11-21T04:39:39.754Z,58.89
2018-11-21T04:40:39.693Z,58.98
2018-11-21T04:41:39.633Z,58.61
2018-11-21T04:42:39.604Z,58.89
2018-11-21T04:43:39.510Z,58.61
2018-11-21T04:44:39.456Z,58.98
2018-11-21T04:45:39.388Z,58.98
2018-11-21T04:46:39.329Z,58.89
2018-11-21T04:47:39.268Z,58.80
2018-11-21T04:48:39.206Z,58.41
2018-11-21T04:49:39.147Z,58.89
2018-11-21T04:50:39.092Z,58.80
2018-11-21T04:51:39.024Z,58.98
2018-11-21T04:52:38.966Z,58.89
2018-11-21T04:53:38.903Z,58.89
2018-11-21T04:54:38.839Z,58.98
2018-11-21T04:55:38.778Z,58.98
2018-11-21T04:56:38.718Z,58.89
2018-11-21T04:57:38.657Z,58.98
2018-11-21T04:58:38.599Z,58.80
2018-11-21T04:59:38.535Z,58.98
2018-11-21T05:00:38.473Z,58.51
2018-11-21T05:01:38.413Z,58.51
2018-11-21T05:02:38.355Z,58.41
2018-11-21T05:03:38.291Z,58.41
2018-11-21T05:04:38.231Z,58.80
2018-11-21T05:05:38.176Z,58.41
2018-11-21T05:06:38.113Z,58.61
2018-11-21T05:07:38.048Z,58.70
2018-11-21T05:08:37.989Z,58.89
2018-11-21T05:09:37.926Z,58.70
2018-11-21T05:10:37.868Z,58.89
2018-11-21T05:11:37.804Z,58.61
2018-11-21T05:12:37.744Z,58.51
2018-11-21T05:13:37.684Z,58.70
2018-11-21T05:14:37.622Z,58.51
2018-11-21T05:15:37.559Z,58.70
2018-11-21T05:16:37.499Z,58.70
2018-11-21T05:17:37.438Z,58.89
2018-11-21T05:18:37.380Z,58.70
2018-11-21T05:19:37.315Z,58.51
2018-11-21T05:20:37.256Z,58.89
2018-11-21T05:21:37.198Z,58.80
2018-11-21T05:22:37.132Z,58.89
2018-11-21T05:23:37.073Z,58.80
2018-11-21T05:24:37.009Z,58.80
2018-11-21T05:25:36.950Z,58.80
2018-11-21T05:26:36.889Z,58.70
2018-11-21T05:27:36.826Z,58.80
2018-11-21T05:28:36.775Z,58.89
2018-11-21T05:29:36.706Z,58.61
2018-11-21T05:30:36.644Z,58.61
2018-11-21T05:31:36.584Z,58.51
2018-11-21T05:32:36.522Z,58.89
2018-11-21T05:33:36.469Z,58.51
2018-11-21T05:34:36.404Z,58.48
2018-11-21T05:35:36.340Z,58.89
2018-11-21T05:36:36.283Z,58.89
2018-11-21T05:37:36.222Z,58.41
2018-11-21T05:38:36.156Z,58.61
2018-11-21T05:39:36.099Z,58.70
2018-11-21T05:40:36.036Z,58.80
2018-11-21T05:41:35.972Z,58.70
2018-11-21T05:42:35.913Z,58.80
2018-11-21T05:43:35.893Z,58.70
2018-11-21T05:44:35.793Z,58.80
2018-11-21T05:45:35.730Z,58.80
2018-11-21T05:46:35.669Z,58.98
2018-11-21T05:47:35.606Z,58.67
2018-11-21T05:48:35.548Z,58.80
2018-11-21T05:49:35.491Z,58.76
2018-11-21T05:50:35.423Z,58.80
2018-11-21T05:51:35.364Z,58.86
2018-11-21T05:52:35.304Z,58.51
2018-11-21T05:53:35.240Z,58.41
2018-11-21T05:54:35.182Z,58.58
2018-11-21T05:55:35.118Z,58.48
2018-11-21T05:56:35.058Z,58.48
2018-11-21T05:57:34.996Z,58.86
2018-11-21T05:58:34.936Z,58.95
2018-11-21T05:59:34.879Z,58.86
2018-11-21T06:00:34.817Z,58.86
2018-11-21T06:01:34.751Z,58.86
2018-11-21T06:02:34.690Z,58.67
2018-11-21T06:03:34.628Z,58.67
2018-11-21T06:04:34.570Z,58.48
2018-11-21T06:05:34.507Z,58.86
2018-11-21T06:06:34.451Z,58.48
2018-11-21T06:07:34.389Z,58.86
2018-11-21T06:08:34.324Z,58.86
2018-11-21T06:09:34.263Z,58.86
2018-11-21T06:10:34.206Z,58.58
2018-11-21T06:11:34.146Z,58.48
2018-11-21T06:12:34.081Z,58.95
2018-11-21T06:13:34.020Z,58.86
2018-11-21T06:14:33.958Z,58.48
2018-11-21T06:15:33.895Z,58.48
2018-11-21T06:16:33.835Z,58.76
2018-11-21T06:17:33.773Z,58.76
2018-11-21T06:18:33.715Z,58.67
2018-11-21T06:19:33.654Z,58.58
2018-11-21T06:20:33.590Z,58.39
2018-11-21T06:21:33.529Z,58.48
2018-11-21T06:22:33.468Z,58.48
2018-11-21T06:23:33.406Z,58.58
2018-11-21T06:24:33.347Z,58.48
2018-11-21T06:25:33.288Z,58.58
2018-11-21T06:26:33.225Z,58.67
2018-11-21T06:27:33.163Z,58.76
2018-11-21T06:28:33.101Z,58.48
2018-11-21T06:29:33.042Z,58.86
2018-11-21T06:30:32.979Z,58.86
2018-11-21T06:31:32.917Z,58.95
2018-11-21T06:32:32.857Z,58.76
2018-11-21T06:33:32.797Z,58.86
2018-11-21T06:34:33.009Z,58.76
2018-11-21T06:35:32.674Z,58.67
2018-11-21T06:36:32.612Z,59.05
2018-11-21T06:37:32.552Z,58.86
2018-11-21T06:38:32.490Z,58.76
2018-11-21T06:39:32.431Z,58.67
2018-11-21T06:40:32.367Z,58.86
2018-11-21T06:41:32.312Z,58.86
2018-11-21T06:42:32.246Z,58.86
2018-11-21T06:43:32.184Z,58.76
2018-11-21T06:44:32.123Z,58.67
2018-11-21T06:45:32.065Z,58.48
2018-11-21T06:46:32.001Z,58.58
2018-11-21T06:47:31.937Z,58.76
2018-11-21T06:48:31.878Z,58.86
2018-11-21T06:49:31.827Z,58.86
2018-11-21T06:50:31.755Z,58.86
2018-11-21T06:51:35.159Z,58.86
2018-11-21T06:52:31.634Z,58.67
2018-11-21T06:53:31.572Z,58.76
2018-11-21T06:54:31.516Z,58.67
2018-11-21T06:55:31.448Z,59.14
2018-11-21T06:56:31.388Z,59.05
2018-11-21T06:57:31.327Z,59.14
2018-11-21T06:58:31.266Z,59.05
2018-11-21T06:59:31.205Z,59.14
2018-11-21T07:00:31.147Z,59.33
2018-11-21T07:01:31.084Z,59.14
2018-11-21T07:02:31.023Z,59.24
2018-11-21T07:03:30.959Z,59.52
2018-11-21T07:04:30.899Z,59.62
2018-11-21T07:05:30.837Z,59.71
2018-11-21T07:06:30.777Z,59.62
2018-11-21T07:07:30.722Z,59.71
2018-11-21T07:08:30.655Z,59.62
2018-11-21T07:09:30.592Z,59.81
2018-11-21T07:10:30.532Z,59.71
2018-11-21T07:11:30.470Z,60.19
2018-11-21T07:12:30.408Z,60.19
2018-11-21T07:13:30.351Z,60.00
2018-11-21T07:14:30.288Z,60.28
2018-11-21T07:15:30.224Z,60.19
2018-11-21T07:16:30.166Z,60.38
2018-11-21T07:17:30.105Z,60.28
2018-11-21T07:18:30.042Z,60.28
2018-11-21T07:19:29.981Z,61.04
2018-11-21T07:20:29.919Z,60.47
2018-11-21T07:21:29.859Z,60.57
2018-11-21T07:22:29.796Z,60.57
2018-11-21T07:23:29.739Z,60.66
2018-11-21T07:24:29.674Z,60.66
2018-11-21T07:25:29.619Z,60.28
2018-11-21T07:26:29.553Z,60.76
2018-11-21T07:27:29.490Z,60.95
2018-11-21T07:28:29.435Z,60.85
2018-11-21T07:29:34.472Z,60.85
2018-11-21T07:30:29.306Z,60.76
2018-11-21T07:31:29.244Z,60.95
2018-11-21T07:32:29.186Z,60.76
2018-11-21T07:33:29.124Z,60.85
2018-11-21T07:34:29.063Z,60.95
2018-11-21T07:35:29.005Z,61.04
2018-11-21T07:36:28.940Z,61.23
2018-11-21T07:37:29.552Z,60.95
2018-11-21T07:38:28.817Z,61.33
2018-11-21T07:39:28.755Z,61.42
2018-11-21T07:40:28.695Z,61.33
2018-11-21T07:41:28.635Z,61.23
2018-11-21T07:42:28.581Z,61.33
2018-11-21T07:43:28.511Z,61.52
2018-11-21T07:44:28.449Z,61.61
2018-11-21T07:45:28.390Z,62.37
2018-11-21T07:46:28.328Z,62.18
2018-11-21T07:47:28.265Z,62.08
2018-11-21T07:48:43.053Z,62.08
2018-11-21T07:49:28.147Z,61.90
2018-11-21T07:50:28.086Z,62.08
2018-11-21T07:51:28.024Z,62.27
2018-11-21T07:52:27.960Z,62.56
2018-11-21T07:53:27.898Z,62.46
2018-11-21T07:54:27.841Z,62.37
2018-11-21T07:55:27.775Z,62.66
2018-11-21T07:56:27.716Z,62.66
2018-11-21T07:57:27.655Z,62.46
2018-11-21T07:58:27.593Z,62.94
2018-11-21T07:59:27.531Z,62.46
2018-11-21T08:00:27.470Z,62.56
2018-11-21T08:01:27.413Z,62.66
2018-11-21T08:02:27.347Z,63.32
2018-11-21T08:03:27.292Z,62.75
2018-11-21T08:04:27.225Z,63.42
2018-11-21T08:05:27.164Z,62.94
2018-11-21T08:06:27.131Z,63.32
2018-11-21T08:07:27.041Z,63.13
2018-11-21T08:08:26.985Z,63.13
2018-11-21T08:09:26.919Z,63.13
2018-11-21T08:10:26.858Z,63.13
2018-11-21T08:11:26.795Z,63.98
2018-11-21T08:12:26.736Z,63.73
2018-11-21T08:13:26.674Z,63.70
2018-11-21T08:14:26.613Z,63.89
2018-11-21T08:15:26.552Z,63.70
2018-11-21T08:16:26.490Z,63.79
2018-11-21T08:17:26.431Z,63.79
2018-11-21T08:18:26.369Z,63.79
2018-11-21T08:19:26.307Z,63.51
2018-11-21T08:20:26.248Z,63.98
2018-11-21T08:21:26.185Z,63.89
2018-11-21T08:22:26.124Z,63.45
2018-11-21T08:23:26.065Z,63.98
2018-11-21T08:24:26.005Z,63.98
2018-11-21T08:25:25.940Z,64.08
2018-11-21T08:26:25.879Z,63.98
2018-11-21T08:27:25.818Z,64.37
2018-11-21T08:28:25.757Z,64.17
2018-11-21T08:29:25.694Z,64.56
2018-11-21T08:30:25.634Z,64.46
2018-11-21T08:31:25.573Z,64.27
2018-11-21T08:32:25.510Z,64.27
2018-11-21T08:33:25.455Z,64.11
2018-11-21T08:34:25.389Z,64.40
2018-11-21T08:35:25.326Z,64.37
2018-11-21T08:36:25.272Z,64.27
2018-11-21T08:37:25.205Z,64.37
2018-11-21T08:38:25.144Z,64.37
2018-11-21T08:39:25.083Z,64.17
2018-11-21T08:40:25.022Z,64.49
2018-11-21T08:41:24.959Z,64.49
2018-11-21T08:42:24.903Z,64.30
2018-11-21T08:43:24.838Z,64.08
2018-11-21T08:44:24.775Z,64.69
2018-11-21T08:45:24.726Z,64.30
2018-11-21T08:46:24.654Z,64.17
2018-11-21T08:47:24.596Z,64.21
2018-11-21T08:48:24.534Z,64.37
2018-11-21T08:49:24.471Z,64.59
2018-11-21T08:50:24.408Z,64.56
2018-11-21T08:51:24.350Z,64.49
2018-11-21T08:52:24.287Z,64.59
2018-11-21T08:53:24.225Z,64.59
2018-11-21T08:54:24.165Z,64.37
2018-11-21T08:55:24.104Z,64.59
2018-11-21T08:56:24.045Z,64.69
2018-11-21T08:57:23.985Z,65.06
2018-11-21T08:58:23.923Z,64.97
2018-11-21T08:59:23.862Z,65.35
2018-11-21T09:00:23.798Z,65.35
2018-11-21T09:01:23.737Z,64.78
2018-11-21T09:02:23.675Z,64.94
2018-11-21T09:03:23.612Z,64.87
2018-11-21T09:04:23.553Z,64.87
2018-11-21T09:05:23.489Z,64.59
2018-11-21T09:06:23.431Z,64.59
2018-11-21T09:07:23.367Z,64.49
2018-11-21T09:08:23.305Z,64.49
2018-11-21T09:09:23.245Z,64.49
2018-11-21T09:10:23.186Z,65.06
2018-11-21T09:11:23.123Z,65.35
2018-11-21T09:12:23.060Z,65.35
2018-11-21T09:13:23.002Z,65.35
2018-11-21T09:14:22.941Z,65.54
2018-11-21T09:15:22.876Z,65.44
2018-11-21T09:16:22.816Z,65.54
2018-11-21T09:17:22.754Z,65.06
2018-11-21T09:18:22.693Z,64.49
2018-11-21T09:19:22.633Z,64.49
2018-11-21T09:20:22.571Z,64.97
2018-11-21T09:21:22.509Z,65.06
2018-11-21T09:22:22.481Z,65.16
2018-11-21T09:23:22.387Z,65.63
2018-11-21T09:24:22.326Z,65.63
2018-11-21T09:25:22.264Z,65.54
2018-11-21T09:26:22.204Z,65.25
2018-11-21T09:27:22.142Z,65.35
2018-11-21T09:28:22.085Z,65.54
2018-11-21T09:29:22.020Z,65.25
2018-11-21T09:30:21.962Z,65.35
2018-11-21T09:31:21.907Z,65.25
2018-11-21T09:32:21.835Z,65.35
2018-11-21T09:33:21.775Z,65.06
2018-11-21T09:34:21.716Z,65.16
2018-11-21T09:35:21.652Z,65.35
2018-11-21T09:36:21.591Z,65.35
2018-11-21T09:37:21.538Z,65.16
2018-11-21T09:38:21.470Z,65.16
2018-11-21T09:39:21.407Z,65.25
2018-11-21T09:40:21.346Z,65.35
2018-11-21T09:41:21.285Z,64.97
2018-11-21T09:42:21.224Z,64.87
2018-11-21T09:43:21.163Z,64.97
2018-11-21T09:44:21.102Z,65.35
2018-11-21T09:45:21.042Z,65.25
2018-11-21T09:46:20.981Z,65.25
2018-11-21T09:47:20.917Z,65.35
2018-11-21T09:48:20.857Z,64.97
2018-11-21T09:49:20.840Z,65.25
2018-11-21T09:50:20.736Z,65.35
2018-11-21T09:51:20.674Z,64.97
2018-11-21T09:52:20.613Z,65.06
2018-11-21T09:53:20.553Z,65.25
2018-11-21T09:54:20.490Z,65.06
2018-11-21T09:55:20.427Z,64.97
2018-11-21T09:56:20.366Z,65.25
2018-11-21T09:57:20.309Z,65.25
2018-11-21T09:58:20.245Z,65.35
2018-11-21T09:59:20.184Z,65.06
2018-11-21T10:00:20.125Z,65.16
2018-11-21T10:01:20.061Z,65.44
2018-11-21T10:02:19.999Z,65.35
2018-11-21T10:03:19.936Z,65.44
2018-11-21T10:04:19.884Z,65.25
2018-11-21T10:05:19.815Z,65.25
2018-11-21T10:06:19.773Z,65.25
2018-11-21T10:07:19.694Z,65.35
2018-11-21T10:08:19.632Z,65.44
2018-11-21T10:09:19.570Z,65.54
2018-11-21T10:10:19.511Z,65.92
2018-11-21T10:11:19.448Z,66.01
2018-11-21T10:12:19.391Z,65.82
2018-11-21T10:13:19.325Z,65.82
2018-11-21T10:14:19.264Z,66.01
2018-11-21T10:15:19.205Z,65.92
2018-11-21T10:16:19.142Z,66.01
2018-11-21T10:17:19.081Z,65.63
2018-11-21T10:18:19.020Z,65.54
2018-11-21T10:19:18.960Z,66.01
2018-11-21T10:20:18.899Z,65.82
2018-11-21T10:21:18.838Z,65.44
2018-11-21T10:22:18.785Z,65.73
2018-11-21T10:23:18.716Z,65.92
2018-11-21T10:24:18.652Z,65.54
2018-11-21T10:25:18.590Z,65.54
2018-11-21T10:26:18.533Z,65.73
2018-11-21T10:27:18.467Z,65.73
2018-11-21T10:28:18.406Z,65.54
2018-11-21T10:29:18.347Z,65.44
2018-11-21T10:30:18.286Z,65.54
2018-11-21T10:31:18.225Z,65.73
2018-11-21T10:32:18.164Z,66.11
2018-11-21T10:33:18.101Z,66.20
2018-11-21T10:34:18.040Z,65.44
2018-11-21T10:35:17.980Z,65.73
2018-11-21T10:36:17.920Z,66.30
2018-11-21T10:37:17.856Z,65.73
2018-11-21T10:38:17.797Z,65.92
2018-11-21T10:39:17.734Z,66.30
2018-11-21T10:40:17.673Z,65.54
2018-11-21T10:41:17.694Z,65.82
2018-11-21T10:42:17.550Z,65.63
2018-11-21T10:43:17.490Z,66.01
2018-11-21T10:44:17.435Z,66.20
2018-11-21T10:45:17.368Z,66.20
2018-11-21T10:46:17.305Z,66.20
2018-11-21T10:47:17.253Z,66.11
2018-11-21T10:48:17.185Z,65.73
2018-11-21T10:49:17.123Z,66.20
2018-11-21T10:50:17.065Z,66.20
2018-11-21T10:51:16.999Z,66.20
2018-11-21T10:52:16.938Z,66.39
2018-11-21T10:53:16.878Z,66.11
2018-11-21T10:54:16.816Z,66.11
2018-11-21T10:55:16.754Z,66.20
2018-11-21T10:56:16.697Z,66.11
2018-11-21T10:57:16.632Z,66.20
2018-11-21T10:58:16.572Z,66.11
2018-11-21T10:59:16.511Z,66.30
2018-11-21T11:00:16.453Z,66.30
2018-11-21T11:01:16.388Z,66.01
2018-11-21T11:02:16.336Z,66.11
2018-11-21T11:03:16.305Z,66.30
2018-11-21T11:04:16.211Z,66.01
2018-11-21T11:05:16.160Z,66.11
2018-11-21T11:06:16.083Z,66.39
2018-11-21T11:07:16.020Z,65.82
2018-11-21T11:08:15.960Z,66.58
2018-11-21T11:09:16.920Z,66.01
2018-11-21T11:10:15.838Z,66.11
2018-11-21T11:11:15.777Z,66.01
2018-11-21T11:12:15.717Z,66.39
2018-11-21T11:13:15.686Z,66.30
2018-11-21T11:14:15.593Z,66.39
2018-11-21T11:15:15.534Z,66.11
2018-11-21T11:16:15.471Z,65.92
2018-11-21T11:17:15.417Z,65.92
2018-11-21T11:18:15.353Z,66.01
2018-11-21T11:19:15.294Z,66.01
2018-11-21T11:20:15.232Z,66.30
2018-11-21T11:21:15.169Z,66.11
2018-11-21T11:22:15.107Z,66.01
2018-11-21T11:23:15.042Z,66.39
2018-11-21T11:24:14.981Z,66.11
2018-11-21T11:25:14.920Z,66.20
2018-11-21T11:26:14.860Z,66.01
2018-11-21T11:27:14.797Z,66.01
2018-11-21T11:28:14.836Z,66.01
2018-11-21T11:29:14.675Z,66.01
2018-11-21T11:30:14.614Z,66.58
2018-11-21T11:31:14.553Z,65.92
2018-11-21T11:32:14.491Z,66.67
2018-11-21T11:33:14.431Z,66.49
2018-11-21T11:34:14.370Z,66.20
2018-11-21T11:35:14.309Z,66.77
2018-11-21T11:36:14.248Z,66.77
2018-11-21T11:37:14.186Z,66.58
2018-11-21T11:38:14.128Z,67.15
2018-11-21T11:39:14.066Z,67.15
2018-11-21T11:40:14.009Z,67.15
2018-11-21T11:41:13.991Z,66.77
2018-11-21T11:42:13.884Z,66.67
2018-11-21T11:43:13.819Z,66.67
2018-11-21T11:44:13.762Z,66.87
2018-11-21T11:45:14.503Z,67.15
2018-11-21T11:46:13.636Z,66.87
2018-11-21T11:47:13.574Z,66.87
2018-11-21T11:48:13.518Z,66.96
2018-11-21T11:49:13.451Z,67.06
2018-11-21T11:50:13.391Z,66.77
2018-11-21T11:51:13.336Z,67.06
2018-11-21T11:52:13.268Z,66.67
2018-11-21T11:53:13.210Z,66.67
2018-11-21T11:54:13.149Z,66.77
2018-11-21T11:55:13.089Z,67.06
2018-11-21T11:56:13.024Z,66.87
2018-11-21T11:57:12.966Z,67.06
2018-11-21T11:58:12.909Z,66.87
2018-11-21T11:59:12.841Z,66.77
2018-11-21T12:00:12.778Z,67.06
2018-11-21T12:01:12.728Z,67.06
2018-11-21T12:02:13.448Z,66.87
2018-11-21T12:03:12.599Z,66.77
2018-11-21T12:04:12.538Z,66.87
2018-11-21T12:05:12.473Z,66.77
2018-11-21T12:06:12.412Z,67.06
2018-11-21T12:07:12.357Z,67.06
2018-11-21T12:08:12.292Z,66.67
2018-11-21T12:09:12.232Z,66.58
2018-11-21T12:10:12.170Z,66.58
2018-11-21T12:11:12.106Z,66.58
2018-11-21T12:12:12.049Z,66.30
2018-11-21T12:13:11.990Z,66.39
2018-11-21T12:14:11.926Z,66.77
2018-11-21T12:15:11.861Z,66.49
2018-11-21T12:16:11.803Z,66.77
2018-11-21T12:17:11.740Z,67.15
2018-11-21T12:18:11.680Z,66.96
2018-11-21T12:19:11.620Z,66.77
2018-11-21T12:20:12.112Z,66.87
2018-11-21T12:21:11.497Z,66.58
2018-11-21T12:22:11.436Z,67.15
2018-11-21T12:23:11.389Z,66.67
2018-11-21T12:24:11.313Z,67.06
2018-11-21T12:25:11.256Z,66.87
2018-11-21T12:26:11.198Z,66.77
2018-11-21T12:27:11.130Z,66.77
2018-11-21T12:28:11.075Z,66.87
2018-11-21T12:29:11.007Z,66.96
2018-11-21T12:30:10.946Z,66.67
2018-11-21T12:31:10.886Z,66.87
2018-11-21T12:32:10.823Z,66.96
2018-11-21T12:33:10.763Z,66.87
2018-11-21T12:34:10.702Z,66.87
2018-11-21T12:35:10.639Z,66.67
2018-11-21T12:36:10.579Z,66.77
2018-11-21T12:37:10.520Z,66.77
2018-11-21T12:38:10.456Z,66.87
2018-11-21T12:39:10.395Z,66.87
2018-11-21T12:40:10.335Z,66.96
2018-11-21T12:41:10.272Z,67.06
2018-11-21T12:42:10.212Z,66.87
2018-11-21T12:43:13.521Z,66.77
2018-11-21T12:44:10.090Z,66.77
2018-11-21T12:45:10.040Z,66.96
2018-11-21T12:46:09.968Z,67.15
2018-11-21T12:47:09.916Z,66.87
2018-11-21T12:48:09.847Z,66.87
2018-11-21T12:49:09.783Z,66.77
2018-11-21T12:50:09.723Z,66.67
2018-11-21T12:51:09.660Z,66.67
2018-11-21T12:52:09.601Z,66.58